Currently 58°F in Perris, California, USA
58°F
60°F / 49°F
11 mph S
0.00"
Wednesday, May 22, 2019 1:45 PM PDT

Perris, California Weather Summary
Last 36 Hours

Temperature Winds Hourly Humidity Dewpoint
Time Report Norm Report Norm Max Gusts Precip. Rpt. Norm Rpt. Norm Pressure
1Wed 01:45 PM  57.6°F  75°F  11 mph S  6 mph  21 mph  0.00"  73%  43%  49°F  51°F  29.70"
Wed 01:00 PM  58.3°F  74°F  11 mph S  5 mph  19 mph  0.00"  70%  45%  48°F  51°F  29.70"
Wed 12:00 PM  58.6°F  72°F  10 mph S  4 mph  19 mph  0.00"  71%  49%  49°F  51°F  29.71"
Wed 11:00 AM  57.1°F  68°F  9 mph S  4 mph  16 mph  0.00"  76%  56%  49°F  52°F  29.71"
2Wed 10:28 AM  60.3°F  67°F  8 mph S  3 mph  11 mph  ----  66%  60%  48°F  52°F  29.70"
Wed 10:00 AM  58.8°F  65°F  2 mph N  3 mph  10 mph  0.00"  70%  64%  49°F  52°F  29.70"
Wed 09:00 AM  57.0°F  61°F  3 mph SW  3 mph  11 mph  0.00"  76%  74%  49°F  53°F  29.72"
Wed 08:00 AM  53.5°F  58°F  3 mph S  3 mph  11 mph  0.00"  90%  83%  50°F  53°F  29.73"
Wed 07:00 AM  50.1°F  55°F  4 mph S  3 mph  7 mph  0.00"  98%  88%  49°F  51°F  29.72"
Wed 06:00 AM  49.4°F  55°F  4 mph S  2 mph  9 mph  0.00"  97%  88%  49°F  51°F  29.71"
Wed 05:00 AM  49.4°F  55°F  3 mph S  3 mph  9 mph  0.00"  97%  87%  49°F  51°F  29.70"
Wed 04:00 AM  49.2°F  55°F  4 mph S  3 mph  10 mph  0.00"  98%  87%  48°F  51°F  29.71"
3Wed 03:43 AM  48.8°F  56°F  5 mph S  3 mph  9 mph  ----  97%  87%  48°F  52°F  29.71"
Wed 03:00 AM  49.7°F  56°F  5 mph S  3 mph  10 mph  0.00"  96%  86%  49°F  52°F  29.71"
Wed 02:00 AM  50.7°F  57°F  5 mph SE  3 mph  11 mph  0.00"  96%  85%  50°F  52°F  29.73"
Wed 01:00 AM  52.3°F  57°F  5 mph S  3 mph  10 mph  0.00"  95%  83%  51°F  52°F  29.74"
Wed 12:00 AM  52.4°F  58°F  4 mph S  3 mph  10 mph  0.00"  94%  81%  51°F  52°F  29.75"
Tue 11:00 PM  52.8°F  59°F  7 mph S  4 mph  11 mph  0.00"  91%  78%  50°F  52°F  29.75"
Tue 10:00 PM  53.3°F  61°F  4 mph S  4 mph  11 mph  0.00"  87%  74%  49°F  52°F  29.76"
Tue 09:00 PM  54.7°F  63°F  6 mph SW  4 mph  11 mph  0.00"  80%  68%  48°F  52°F  29.77"
Tue 08:00 PM  56.7°F  66°F  4 mph S  5 mph  8 mph  0.00"  75%  60%  49°F  51°F  29.76"
Tue 07:00 PM  57.7°F  70°F  2 mph W  6 mph  13 mph  0.00"  72%  52%  48°F  51°F  29.75"
Tue 06:00 PM  58.4°F  73°F  8 mph SW  7 mph  20 mph  0.00"  70%  46%  48°F  50°F  29.76"
Tue 05:00 PM  60.4°F  75°F  10 mph S  7 mph  22 mph  0.00"  66%  43%  49°F  51°F  29.77"
Tue 04:00 PM  61.2°F  77°F  12 mph SW  7 mph  20 mph  0.00"  67%  41%  50°F  51°F  29.79"
Tue 03:00 PM  61.6°F  77°F  12 mph SW  6 mph  21 mph  0.00"  63%  41%  48°F  51°F  29.81"
Tue 02:00 PM  63.0°F  76°F  13 mph S  5 mph  21 mph  0.00"  63%  43%  50°F  51°F  29.83"
Tue 01:00 PM  62.5°F  74°F  11 mph S  5 mph  21 mph  0.00"  63%  45%  49°F  51°F  29.83"
Tue 12:00 PM  62.4°F  72°F  9 mph SW  4 mph  13 mph  0.00"  64%  49%  50°F  51°F  29.85"
Tue 11:00 AM  60.3°F  69°F  4 mph S  4 mph  10 mph  0.00"  69%  55%  50°F  52°F  29.88"
Tue 10:00 AM  58.3°F  66°F  3 mph SW  3 mph  13 mph  0.00"  77%  63%  51°F  52°F  29.89"
Tue 09:00 AM  55.5°F  62°F  7 mph S  3 mph  14 mph  0.00"  83%  73%  50°F  53°F  29.92"
Tue 08:00 AM  51.7°F  58°F  3 mph S  3 mph  9 mph  0.00"  96%  82%  50°F  53°F  29.92"
Tue 07:00 AM  50.8°F  55°F  4 mph S  3 mph  7 mph  0.00"  97%  87%  50°F  51°F  29.94"
Tue 06:00 AM  50.4°F  55°F  3 mph S  2 mph  8 mph  0.00"  97%  87%  50°F  51°F  29.94"
Tue 05:00 AM  50.5°F  55°F  4 mph S  3 mph  8 mph  0.00"  98%  86%  50°F  51°F  29.94"
Tue 04:00 AM  50.1°F  56°F  3 mph SE  3 mph  8 mph  0.00"  98%  86%  50°F  51°F  29.94"
Tue 03:00 AM  50.0°F  56°F  5 mph S  3 mph  9 mph  0.00"  98%  85%  49°F  52°F  29.95"
Tue 02:00 AM  50.6°F  57°F  5 mph S  3 mph  12 mph  0.00"  97%  84%  50°F  52°F  29.96"

  1. Current weather data. No green row appears if the current weather data is also the high or low for the current day.
  2. High temperature for the current day.
  3. Low temperature for the current day.

The Perris, California weather pages are a service of WeatherCurrents. Perris is located in Southern California's Inland Empire, south of Riverside and north of Sun City, along the Interstate 215 freeway.
Copyright ©2019  WeatherCurrents. All rights reserved. - Submit questions and comments - Privacy Policy

This page automatically refreshes every 10 minutes.